Time;durP1;ratioP1;P1;durP2;ratioP2;P2;SDS_P1;SDS_P2;PMS_P1;PMS_P2;Temp;Humidity;BMP_temperature;BMP_pressure;BME280_temperature;BME280_humidity;BME280_pressure;Samples;Min_cycle;Max_cycle;Signal;HPM_P1;HPM_P2
2022/12/21 00:02:49;;;;;;;1.08;0.50;;;;;;;16.25;71.98;100647.59;20579516;28;20097;-88
2022/12/21 00:12:50;;;;;;;1.50;0.60;;;;;;;16.26;72.04;100643.94;20584026;28;20133;-87
2022/12/21 00:22:52;;;;;;;0.77;0.50;;;;;;;15.84;72.05;100571.41;20591567;28;20061;-89
2022/12/21 00:32:54;;;;;;;1.10;0.55;;;;;;;16.26;71.99;100651.16;20609384;28;20050;-88
2022/12/21 00:42:56;;;;;;;1.83;0.73;;;;;;;16.25;71.98;100666.41;20588449;28;20500;-88
2022/12/21 00:52:57;;;;;;;1.10;0.52;;;;;;;16.25;71.92;100655.66;20575370;28;20515;-88
2022/12/21 01:02:59;;;;;;;1.38;0.60;;;;;;;16.24;71.88;100653.94;20577449;28;20055;-88
2022/12/21 01:13:01;;;;;;;1.10;0.60;;;;;;;16.24;72.01;100662.88;20619886;28;20410;-88
2022/12/21 01:23:02;;;;;;;1.35;0.50;;;;;;;16.24;71.80;100678.13;20593637;28;20507;-87
2022/12/21 01:33:05;;;;;;;1.27;0.60;;;;;;;16.04;71.81;100647.59;20563493;28;20050;-88
2022/12/21 01:43:16;;;;;;;1.23;0.75;;;;;;;16.24;72.02;100686.19;20606009;28;20109;-88
2022/12/21 01:53:22;;;;;;;1.05;0.65;;;;;;;16.22;71.94;100672.03;20579576;28;20054;-88
2022/12/21 02:03:32;;;;;;;1.15;0.88;;;;;;;15.81;71.93;100616.31;20567378;28;20050;-88
2022/12/21 02:13:34;;;;;;;0.60;0.57;;;;;;;16.04;71.81;100656.50;20582577;28;20507;-88
2022/12/21 02:23:55;;;;;;;0.63;0.60;;;;;;;16.16;71.93;100688.69;20580643;28;20073;-89
2022/12/21 02:34:09;;;;;;;1.20;0.60;;;;;;;15.99;71.71;100650.69;20499124;28;20500;-88
2022/12/21 02:44:47;;;;;;;0.95;0.60;;;;;;;15.63;71.85;100573.09;20549937;28;20503;-88
2022/12/21 02:54:56;;;;;;;1.13;0.85;;;;;;;16.07;71.77;100652.69;20533968;28;20384;-88
2022/12/21 03:05:35;;;;;;;2.17;0.90;;;;;;;16.21;71.59;100654.22;20617151;28;20058;-88
2022/12/21 03:15:56;;;;;;;1.58;0.73;;;;;;;16.20;71.70;100658.75;20632498;28;20762;-88
2022/12/21 03:26:07;;;;;;;1.38;0.80;;;;;;;15.88;71.72;100605.09;20632835;28;20054;-88
2022/12/21 03:36:15;;;;;;;1.10;0.65;;;;;;;15.96;71.80;100624.09;20623791;28;20045;-89
2022/12/21 03:46:22;;;;;;;1.08;0.63;;;;;;;16.21;71.68;100651.53;20630719;28;20081;-88
2022/12/21 03:56:29;;;;;;;1.08;0.50;;;;;;;16.19;71.70;100648.13;20613493;28;20411;-88
2022/12/21 04:06:33;;;;;;;0.93;0.60;;;;;;;16.19;71.71;100640.94;20613293;28;20054;-88
2022/12/21 04:16:35;;;;;;;0.85;0.70;;;;;;;16.18;71.77;100630.31;20612305;28;20038;-88
2022/12/21 04:47:17;;;;;;;1.00;0.60;;;;;;;15.88;71.52;100589.84;20628427;28;20049;-88
2022/12/21 04:57:19;;;;;;;0.93;0.68;;;;;;;16.18;71.48;100639.22;20593541;28;20057;-88
2022/12/21 05:07:20;;;;;;;0.68;0.50;;;;;;;16.19;71.67;100621.28;20610771;28;20486;-88
2022/12/21 05:17:22;;;;;;;0.98;0.60;;;;;;;16.18;71.67;100627.63;20609573;28;20059;-88
2022/12/21 05:27:24;;;;;;;1.50;0.45;;;;;;;16.18;71.73;100627.63;20593925;28;20050;-88
2022/12/21 05:37:27;;;;;;;0.68;0.65;;;;;;;16.18;71.45;100615.06;20600480;28;20053;-88
2022/12/21 05:47:28;;;;;;;0.80;0.60;;;;;;;16.18;71.60;100616.88;20629216;28;20054;-88
2022/12/21 05:57:30;;;;;;;1.20;0.70;;;;;;;15.87;71.46;100572.00;20615905;28;20051;-86
2022/12/21 06:07:31;;;;;;;0.73;0.60;;;;;;;16.18;71.65;100614.19;20615883;28;20073;-86
2022/12/21 06:17:33;;;;;;;0.93;0.80;;;;;;;16.17;71.47;100616.03;20543566;28;20050;-86
2022/12/21 06:27:35;;;;;;;0.77;0.65;;;;;;;16.08;71.39;100598.00;20596575;28;20060;-86
2022/12/21 06:37:37;;;;;;;1.05;0.70;;;;;;;16.06;71.40;100603.53;20605108;28;20053;-85
2022/12/21 06:47:38;;;;;;;0.90;0.75;;;;;;;16.06;71.59;100584.72;20598151;28;20050;-86
2022/12/21 06:58:28;;;;;;;1.05;0.90;;;;;;;16.17;71.65;100610.66;20554114;28;20047;-86
2022/12/21 07:08:30;;;;;;;0.93;0.63;;;;;;;16.17;71.27;100631.28;20599560;28;20105;-86
2022/12/21 07:18:32;;;;;;;1.48;0.98;;;;;;;16.18;71.47;100633.00;20632947;28;20773;-86
2022/12/21 07:28:34;;;;;;;0.73;0.70;;;;;;;16.18;71.42;100641.06;20599899;28;20083;-86
2022/12/21 07:38:38;;;;;;;0.80;0.70;;;;;;;16.01;71.46;100624.56;20552792;28;20046;-86
2022/12/21 07:48:57;;;;;;;1.10;1.00;;;;;;;16.14;71.41;100640.47;20559597;28;20034;-85
2022/12/21 07:58:59;;;;;;;1.17;0.85;;;;;;;16.17;71.28;100640.22;20566388;28;20608;-85
2022/12/21 08:09:02;;;;;;;1.00;0.82;;;;;;;16.06;71.41;100611.59;20550994;28;20046;-87
2022/12/21 08:19:04;;;;;;;0.98;0.70;;;;;;;16.17;71.45;100625.91;20549162;28;20074;-86
2022/12/21 08:29:05;;;;;;;1.40;0.98;;;;;;;15.88;71.43;100572.88;20500036;28;20061;-86
2022/12/21 08:39:07;;;;;;;1.15;0.90;;;;;;;16.16;71.32;100649.25;20551376;28;20054;-89
2022/12/21 08:49:11;;;;;;;0.90;0.82;;;;;;;16.06;71.75;100643.81;20570410;28;20050;-89
2022/12/21 08:59:12;;;;;;;1.25;0.90;;;;;;;16.16;71.38;100646.56;20575244;28;20047;-93
2022/12/21 09:09:14;;;;;;;1.58;1.10;;;;;;;16.17;71.50;100642.03;20594625;28;20047;-94
2022/12/21 09:19:16;;;;;;;1.02;0.93;;;;;;;16.16;71.34;100640.34;20606204;28;20050;-95
2022/12/21 09:29:17;;;;;;;1.58;1.05;;;;;;;16.16;71.48;100641.19;20633394;28;20058;-88
2022/12/21 09:39:19;;;;;;;0.80;0.73;;;;;;;16.16;71.66;100662.69;20553391;28;20118;-87
2022/12/21 09:49:26;;;;;;;2.28;1.25;;;;;;;15.70;71.62;100597.59;20513000;28;20057;-86
2022/12/21 09:59:27;;;;;;;1.77;1.48;;;;;;;15.75;71.57;100584.63;20547188;28;20062;-86
2022/12/21 10:09:40;;;;;;;2.20;1.00;;;;;;;16.16;71.38;100645.69;20589436;28;20061;-88
2022/12/21 10:20:30;;;;;;;1.30;1.05;;;;;;;16.09;71.74;100624.75;20589480;28;20054;-85
2022/12/21 10:30:32;;;;;;;1.20;0.90;;;;;;;16.16;71.36;100624.22;20317722;28;20043;-84
2022/12/21 10:40:33;;;;;;;1.02;0.80;;;;;;;16.16;71.61;100616.16;20594931;28;20061;-87
2022/12/21 10:50:40;;;;;;;1.60;1.10;;;;;;;16.16;71.48;100605.41;20621598;28;20038;-86
2022/12/21 11:00:59;;;;;;;0.80;0.70;;;;;;;16.09;71.35;100586.28;20584006;28;20074;-86
2022/12/21 11:11:02;;;;;;;1.50;1.10;;;;;;;16.17;71.54;100593.69;20585614;28;20046;-86
2022/12/21 11:21:10;;;;;;;1.55;1.00;;;;;;;16.16;71.58;100571.38;20596157;28;20054;-88
2022/12/21 11:31:12;;;;;;;1.33;1.00;;;;;;;16.06;71.63;100539.09;20565459;28;20058;-84
2022/12/21 11:41:34;;;;;;;1.58;1.02;;;;;;;16.17;71.54;100561.47;20505391;28;20051;-85
2022/12/21 11:52:05;;;;;;;1.20;0.90;;;;;;;15.92;71.69;100520.66;20516149;28;20058;-85
2022/12/21 12:02:31;;;;;;;1.55;0.98;;;;;;;16.16;71.54;100549.03;20512062;28;20050;-84
2022/12/21 12:12:48;;;;;;;1.27;1.17;;;;;;;16.15;71.68;100541.94;20497762;28;20081;-85
2022/12/21 12:23:08;;;;;;;1.20;1.08;;;;;;;16.15;71.67;100532.06;20569658;28;20047;-86
2022/12/21 12:33:44;;;;;;;1.95;1.10;;;;;;;16.15;71.66;100524.00;20522316;28;20169;-85
2022/12/21 12:44:15;;;;;;;2.17;1.60;;;;;;;15.90;72.38;100466.22;20523775;28;20451;-87
2022/12/21 12:54:29;;;;;;;2.80;1.90;;;;;;;16.43;72.13;100512.66;20524151;28;20449;-85
2022/12/21 13:05:02;;;;;;;2.50;1.90;;;;;;;16.51;71.11;100499.41;20564540;28;20166;-84
2022/12/21 13:15:08;;;;;;;2.38;1.92;;;;;;;16.19;70.92;100452.06;20568361;28;20050;-86
2022/12/21 13:25:18;;;;;;;2.05;1.80;;;;;;;16.29;71.08;100463.69;20526493;28;20129;-85
2022/12/21 13:35:58;;;;;;;1.88;1.70;;;;;;;16.36;71.30;100480.13;20571909;28;20046;-85
2022/12/21 13:46:07;;;;;;;2.22;1.70;;;;;;;16.30;71.28;100464.56;20616625;28;20054;-85
2022/12/21 13:56:21;;;;;;;3.05;1.70;;;;;;;16.27;71.25;100449.53;20612797;28;20050;-84
2022/12/21 14:06:50;;;;;;;2.63;1.83;;;;;;;16.24;71.34;100455.19;20571703;28;20042;-86
2022/12/21 14:17:01;;;;;;;3.58;1.63;;;;;;;16.22;71.52;100436.53;20607663;28;20153;-86
2022/12/21 14:27:18;;;;;;;1.98;1.48;;;;;;;16.20;71.34;100462.69;20601715;28;20054;-86
2022/12/21 14:37:24;;;;;;;3.50;1.50;;;;;;;16.09;71.53;100433.22;20584547;28;20046;-96
2022/12/21 14:47:26;;;;;;;2.10;1.60;;;;;;;16.18;71.54;100434.25;20581060;28;20054;-95
2022/12/21 14:57:35;;;;;;;2.85;1.60;;;;;;;16.01;71.77;100403.53;20596025;28;20054;-91
2022/12/21 15:07:52;;;;;;;1.83;1.50;;;;;;;16.18;71.52;100435.13;20567986;28;20050;-91
2022/12/21 15:18:19;;;;;;;2.17;1.40;;;;;;;16.17;71.71;100445.97;20584999;28;20514;-92
2022/12/21 15:28:38;;;;;;;3.22;1.45;;;;;;;16.17;72.19;100445.97;20606670;28;20077;-89
2022/12/21 15:38:44;;;;;;;;;;;;;;;16.17;71.66;100443.28;20505647;28;20141;-87
2022/12/21 15:48:50;;;;;;;1.63;1.20;;;;;;;16.15;71.67;100456.88;20554961;28;19921;-87
2022/12/21 15:58:51;;;;;;;1.92;1.60;;;;;;;16.15;71.78;100440.75;20563141;28;20054;-93
2022/12/21 16:08:54;;;;;;;1.85;1.23;;;;;;;15.80;71.81;100362.31;20597039;28;20058;-88
2022/12/21 16:18:58;;;;;;;1.73;1.40;;;;;;;16.14;71.61;100396.09;20601867;28;20054;-88
2022/12/21 16:29:04;;;;;;;3.10;1.52;;;;;;;16.16;71.87;100398.63;20518815;28;20416;-89
2022/12/21 16:39:08;;;;;;;1.85;1.50;;;;;;;16.16;71.82;100410.22;20571146;28;20046;-91
2022/12/21 16:49:25;;;;;;;2.30;1.40;;;;;;;16.17;71.94;100397.63;20557625;28;20057;-90
2022/12/21 16:59:27;;;;;;;2.30;1.45;;;;;;;15.74;71.70;100329.81;20564958;28;20059;-94
2022/12/21 17:09:31;;;;;;;1.92;1.55;;;;;;;16.14;71.85;100382.66;20598860;28;20054;-90
2022/12/21 17:19:33;;;;;;;4.28;1.80;;;;;;;16.08;71.92;100375.13;20549623;28;20062;-88
2022/12/21 17:29:34;;;;;;;2.10;1.67;;;;;;;16.15;71.99;100376.31;20554326;28;20781;-88
2022/12/21 17:39:36;;;;;;;3.67;1.58;;;;;;;15.79;72.17;100298.88;20574013;28;20518;-89
2022/12/21 17:49:38;;;;;;;4.47;1.98;;;;;;;16.14;72.12;100354.94;20574426;28;20061;-85
2022/12/21 17:59:40;;;;;;;3.13;1.85;;;;;;;16.11;72.09;100363.28;20581549;28;20144;-86
2022/12/21 18:09:41;;;;;;;3.85;2.08;;;;;;;16.14;72.29;100374.59;20613131;28;20086;-89
2022/12/21 18:19:44;;;;;;;3.65;2.40;;;;;;;16.14;72.49;100354.94;20582987;28;20529;-84
2022/12/21 18:29:46;;;;;;;5.18;2.38;;;;;;;16.14;72.35;100345.06;20572533;28;20045;-87
2022/12/21 18:39:48;;;;;;;4.30;2.47;;;;;;;16.14;72.49;100330.78;20540192;28;20050;-87
2022/12/21 18:49:49;;;;;;;2.92;2.00;;;;;;;16.14;72.38;100320.03;20557772;28;20484;-86
2022/12/21 18:59:53;;;;;;;5.10;2.67;;;;;;;16.12;72.66;100304.06;20564699;28;20518;-87
2022/12/21 19:09:55;;;;;;;5.43;2.55;;;;;;;16.14;72.71;100306.59;20578667;28;20124;-86
2022/12/21 19:19:56;;;;;;;4.22;2.30;;;;;;;16.15;73.05;100311.00;20588322;28;20054;-85
2022/12/21 19:29:58;;;;;;;5.07;2.40;;;;;;;16.06;72.79;100294.72;20634177;28;20459;-85
2022/12/21 19:40:00;;;;;;;3.10;1.88;;;;;;;16.06;73.13;100294.72;20616402;28;20498;-85
2022/12/21 19:50:15;;;;;;;4.93;2.20;;;;;;;16.14;72.85;100282.44;20614748;28;20043;-85
2022/12/21 20:00:17;;;;;;;5.67;2.47;;;;;;;16.13;72.96;100270.00;20599655;28;20472;-85
2022/12/21 20:10:19;;;;;;;4.13;2.42;;;;;;;16.12;72.92;100263.78;20623076;28;20053;-85
2022/12/21 20:20:21;;;;;;;5.28;2.25;;;;;;;16.12;72.81;100247.66;20614089;28;20042;-85
2022/12/21 20:30:26;;;;;;;4.85;2.22;;;;;;;16.13;73.03;100238.66;20630393;28;20609;-87
2022/12/21 20:40:28;;;;;;;4.75;2.20;;;;;;;16.12;72.94;100230.72;20547816;28;20046;-87
2022/12/21 20:50:32;;;;;;;5.07;2.28;;;;;;;16.12;72.96;100211.91;20532858;28;20109;-87
2022/12/21 21:00:34;;;;;;;4.38;2.00;;;;;;;16.03;72.92;100192.13;20555347;28;20054;-87
2022/12/21 21:10:35;;;;;;;3.58;1.95;;;;;;;16.12;72.85;100206.53;20553796;28;20047;-87
2022/12/21 21:31:01;;;;;;;3.58;2.15;;;;;;;16.02;72.94;100179.69;20537711;28;20478;-87
2022/12/21 21:51:23;;;;;;;3.22;1.92;;;;;;;15.92;72.71;100142.13;20547551;28;20049;-87
2022/12/21 22:01:26;;;;;;;3.20;1.95;;;;;;;16.01;72.70;100153.84;20560467;28;20671;-87
2022/12/21 22:11:28;;;;;;;3.85;1.95;;;;;;;16.09;72.68;100162.88;20536379;28;20543;-87
2022/12/21 22:42:32;;;;;;;3.35;1.80;;;;;;;16.10;72.83;100115.38;20544033;28;20070;-87
2022/12/21 22:52:34;;;;;;;2.83;1.30;;;;;;;16.09;72.66;100103.81;20621834;28;20084;-87
2022/12/21 23:02:36;;;;;;;3.20;1.63;;;;;;;16.08;72.69;100102.13;20637551;28;20515;-88
2022/12/21 23:43:44;;;;;;;2.05;1.30;;;;;;;15.76;72.53;100036.16;20619648;28;20562;-87
